sensor_id;sensor_type;location;lat;lon;timestamp;P1;durP1;ratioP1;P2;durP2;ratioP2
2610;SDS011;5612;51.134;17.058;2023-02-11T00:01:42;46.27;;;26.57;;
2610;SDS011;5612;51.134;17.058;2023-02-11T00:04:11;37.13;;;27.33;;
2610;SDS011;5612;51.134;17.058;2023-02-11T00:06:41;39.47;;;28.07;;
2610;SDS011;5612;51.134;17.058;2023-02-11T00:09:10;40.43;;;27.13;;
2610;SDS011;5612;51.134;17.058;2023-02-11T00:11:38;40.10;;;25.17;;
2610;SDS011;5612;51.134;17.058;2023-02-11T00:14:08;40.40;;;28.07;;
2610;SDS011;5612;51.134;17.058;2023-02-11T00:16:38;39.07;;;26.70;;
2610;SDS011;5612;51.134;17.058;2023-02-11T00:19:08;38.43;;;25.60;;
2610;SDS011;5612;51.134;17.058;2023-02-11T00:21:37;44.60;;;28.67;;
2610;SDS011;5612;51.134;17.058;2023-02-11T00:24:08;35.93;;;25.30;;
2610;SDS011;5612;51.134;17.058;2023-02-11T00:26:37;40.60;;;25.93;;
2610;SDS011;5612;51.134;17.058;2023-02-11T00:29:06;36.57;;;28.37;;
2610;SDS011;5612;51.134;17.058;2023-02-11T00:31:34;39.67;;;28.30;;
2610;SDS011;5612;51.134;17.058;2023-02-11T00:34:03;43.70;;;30.57;;
2610;SDS011;5612;51.134;17.058;2023-02-11T00:36:32;36.40;;;27.90;;
2610;SDS011;5612;51.134;17.058;2023-02-11T00:39:01;40.17;;;27.90;;
2610;SDS011;5612;51.134;17.058;2023-02-11T00:41:32;44.47;;;29.07;;
2610;SDS011;5612;51.134;17.058;2023-02-11T00:44:01;38.30;;;29.07;;
2610;SDS011;5612;51.134;17.058;2023-02-11T00:46:30;40.70;;;28.60;;
2610;SDS011;5612;51.134;17.058;2023-02-11T00:48:59;41.40;;;28.43;;
2610;SDS011;5612;51.134;17.058;2023-02-11T00:51:27;41.77;;;28.53;;
2610;SDS011;5612;51.134;17.058;2023-02-11T00:53:56;42.47;;;29.43;;
2610;SDS011;5612;51.134;17.058;2023-02-11T00:56:25;39.93;;;27.63;;
2610;SDS011;5612;51.134;17.058;2023-02-11T00:58:55;47.93;;;29.73;;
2610;SDS011;5612;51.134;17.058;2023-02-11T01:01:24;41.87;;;29.73;;
2610;SDS011;5612;51.134;17.058;2023-02-11T01:03:53;42.20;;;30.80;;
2610;SDS011;5612;51.134;17.058;2023-02-11T01:06:22;46.07;;;31.70;;
2610;SDS011;5612;51.134;17.058;2023-02-11T01:08:51;47.67;;;31.53;;
2610;SDS011;5612;51.134;17.058;2023-02-11T01:11:20;47.90;;;29.83;;
2610;SDS011;5612;51.134;17.058;2023-02-11T01:13:49;45.17;;;31.60;;
2610;SDS011;5612;51.134;17.058;2023-02-11T01:16:19;48.70;;;32.50;;
2610;SDS011;5612;51.134;17.058;2023-02-11T01:18:49;35.83;;;24.67;;
2610;SDS011;5612;51.134;17.058;2023-02-11T01:21:18;42.90;;;29.00;;
2610;SDS011;5612;51.134;17.058;2023-02-11T01:23:47;36.93;;;28.20;;
2610;SDS011;5612;51.134;17.058;2023-02-11T01:26:15;38.70;;;30.00;;
2610;SDS011;5612;51.134;17.058;2023-02-11T01:28:44;42.43;;;28.73;;
2610;SDS011;5612;51.134;17.058;2023-02-11T01:31:13;45.10;;;30.73;;
2610;SDS011;5612;51.134;17.058;2023-02-11T01:33:43;46.60;;;30.30;;
2610;SDS011;5612;51.134;17.058;2023-02-11T01:36:12;45.60;;;31.50;;
2610;SDS011;5612;51.134;17.058;2023-02-11T01:38:41;42.97;;;29.60;;
2610;SDS011;5612;51.134;17.058;2023-02-11T01:41:11;45.87;;;30.33;;
2610;SDS011;5612;51.134;17.058;2023-02-11T01:43:42;38.30;;;28.43;;
2610;SDS011;5612;51.134;17.058;2023-02-11T01:46:29;47.50;;;28.57;;
2610;SDS011;5612;51.134;17.058;2023-02-11T01:49:05;40.57;;;30.67;;
2610;SDS011;5612;51.134;17.058;2023-02-11T01:51:37;43.17;;;28.60;;
2610;SDS011;5612;51.134;17.058;2023-02-11T01:54:10;36.83;;;26.43;;
2610;SDS011;5612;51.134;17.058;2023-02-11T01:56:55;40.80;;;29.63;;
2610;SDS011;5612;51.134;17.058;2023-02-11T01:59:44;36.73;;;25.73;;
2610;SDS011;5612;51.134;17.058;2023-02-11T02:02:16;46.00;;;28.20;;
2610;SDS011;5612;51.134;17.058;2023-02-11T02:04:51;40.23;;;27.37;;
2610;SDS011;5612;51.134;17.058;2023-02-11T02:07:29;39.43;;;27.10;;
2610;SDS011;5612;51.134;17.058;2023-02-11T02:10:04;32.23;;;24.23;;
2610;SDS011;5612;51.134;17.058;2023-02-11T02:12:38;39.93;;;27.30;;
2610;SDS011;5612;51.134;17.058;2023-02-11T02:17:59;35.07;;;25.50;;
2610;SDS011;5612;51.134;17.058;2023-02-11T02:20:54;33.87;;;26.60;;
2610;SDS011;5612;51.134;17.058;2023-02-11T02:26:53;33.27;;;26.43;;
2610;SDS011;5612;51.134;17.058;2023-02-11T02:29:52;34.77;;;25.10;;
2610;SDS011;5612;51.134;17.058;2023-02-11T02:32:53;32.33;;;24.50;;
2610;SDS011;5612;51.134;17.058;2023-02-11T02:35:50;40.70;;;27.80;;
2610;SDS011;5612;51.134;17.058;2023-02-11T02:38:29;32.47;;;26.57;;
2610;SDS011;5612;51.134;17.058;2023-02-11T02:41:02;39.17;;;26.53;;
2610;SDS011;5612;51.134;17.058;2023-02-11T02:43:35;34.13;;;27.10;;
2610;SDS011;5612;51.134;17.058;2023-02-11T02:46:10;33.50;;;25.23;;
2610;SDS011;5612;51.134;17.058;2023-02-11T02:48:42;35.50;;;25.43;;
2610;SDS011;5612;51.134;17.058;2023-02-11T02:51:20;36.30;;;25.33;;
2610;SDS011;5612;51.134;17.058;2023-02-11T02:54:10;33.77;;;25.47;;
2610;SDS011;5612;51.134;17.058;2023-02-11T02:56:56;33.50;;;25.00;;
2610;SDS011;5612;51.134;17.058;2023-02-11T02:59:37;33.20;;;25.70;;
2610;SDS011;5612;51.134;17.058;2023-02-11T03:02:16;36.37;;;27.33;;
2610;SDS011;5612;51.134;17.058;2023-02-11T03:04:54;39.87;;;28.43;;
2610;SDS011;5612;51.134;17.058;2023-02-11T03:07:30;37.67;;;29.30;;
2610;SDS011;5612;51.134;17.058;2023-02-11T03:10:07;40.27;;;26.73;;
2610;SDS011;5612;51.134;17.058;2023-02-11T03:12:39;34.60;;;27.70;;
2610;SDS011;5612;51.134;17.058;2023-02-11T03:15:10;36.73;;;27.87;;
2610;SDS011;5612;51.134;17.058;2023-02-11T03:17:41;39.97;;;27.07;;
2610;SDS011;5612;51.134;17.058;2023-02-11T03:20:16;36.90;;;28.73;;
2610;SDS011;5612;51.134;17.058;2023-02-11T03:22:47;32.57;;;25.43;;
2610;SDS011;5612;51.134;17.058;2023-02-11T03:25:21;36.20;;;27.20;;
2610;SDS011;5612;51.134;17.058;2023-02-11T03:27:58;33.07;;;25.57;;
2610;SDS011;5612;51.134;17.058;2023-02-11T03:30:33;35.10;;;26.43;;
2610;SDS011;5612;51.134;17.058;2023-02-11T03:33:09;34.83;;;24.40;;
2610;SDS011;5612;51.134;17.058;2023-02-11T03:35:46;38.20;;;27.33;;
2610;SDS011;5612;51.134;17.058;2023-02-11T03:38:21;41.80;;;30.30;;
2610;SDS011;5612;51.134;17.058;2023-02-11T03:40:54;36.97;;;25.60;;
2610;SDS011;5612;51.134;17.058;2023-02-11T03:43:25;38.27;;;27.30;;
2610;SDS011;5612;51.134;17.058;2023-02-11T03:45:57;38.87;;;28.80;;
2610;SDS011;5612;51.134;17.058;2023-02-11T03:48:29;37.13;;;28.37;;
2610;SDS011;5612;51.134;17.058;2023-02-11T03:51:01;40.87;;;28.33;;
2610;SDS011;5612;51.134;17.058;2023-02-11T03:53:33;39.53;;;29.17;;
2610;SDS011;5612;51.134;17.058;2023-02-11T03:56:04;36.43;;;28.23;;
2610;SDS011;5612;51.134;17.058;2023-02-11T03:58:36;40.27;;;27.00;;
2610;SDS011;5612;51.134;17.058;2023-02-11T04:01:05;40.53;;;28.40;;
2610;SDS011;5612;51.134;17.058;2023-02-11T04:03:35;38.10;;;28.27;;
2610;SDS011;5612;51.134;17.058;2023-02-11T04:06:06;37.07;;;28.83;;
2610;SDS011;5612;51.134;17.058;2023-02-11T04:08:35;32.57;;;26.17;;
2610;SDS011;5612;51.134;17.058;2023-02-11T04:11:04;44.63;;;28.37;;
2610;SDS011;5612;51.134;17.058;2023-02-11T04:13:33;37.70;;;28.93;;
2610;SDS011;5612;51.134;17.058;2023-02-11T04:16:02;37.30;;;25.90;;
2610;SDS011;5612;51.134;17.058;2023-02-11T04:18:30;33.77;;;25.80;;
2610;SDS011;5612;51.134;17.058;2023-02-11T04:21:01;40.40;;;27.50;;
2610;SDS011;5612;51.134;17.058;2023-02-11T04:23:32;41.90;;;27.00;;
2610;SDS011;5612;51.134;17.058;2023-02-11T04:26:01;31.63;;;26.33;;
2610;SDS011;5612;51.134;17.058;2023-02-11T04:28:30;38.63;;;28.37;;
2610;SDS011;5612;51.134;17.058;2023-02-11T04:30:58;36.87;;;26.23;;
2610;SDS011;5612;51.134;17.058;2023-02-11T04:33:27;38.43;;;26.83;;
2610;SDS011;5612;51.134;17.058;2023-02-11T04:35:56;34.83;;;25.53;;
2610;SDS011;5612;51.134;17.058;2023-02-11T04:38:25;35.20;;;27.13;;
2610;SDS011;5612;51.134;17.058;2023-02-11T04:40:55;35.97;;;26.37;;
2610;SDS011;5612;51.134;17.058;2023-02-11T04:43:29;40.13;;;28.27;;
2610;SDS011;5612;51.134;17.058;2023-02-11T04:45:57;34.03;;;26.70;;
2610;SDS011;5612;51.134;17.058;2023-02-11T04:48:26;34.00;;;26.97;;
2610;SDS011;5612;51.134;17.058;2023-02-11T04:50:55;36.50;;;25.97;;
2610;SDS011;5612;51.134;17.058;2023-02-11T04:53:24;29.87;;;24.87;;
2610;SDS011;5612;51.134;17.058;2023-02-11T04:55:52;36.77;;;26.30;;
2610;SDS011;5612;51.134;17.058;2023-02-11T04:58:22;33.07;;;25.90;;
2610;SDS011;5612;51.134;17.058;2023-02-11T05:00:51;37.67;;;25.80;;
2610;SDS011;5612;51.134;17.058;2023-02-11T05:03:20;31.27;;;24.90;;
2610;SDS011;5612;51.134;17.058;2023-02-11T05:05:49;38.73;;;27.80;;
2610;SDS011;5612;51.134;17.058;2023-02-11T05:08:18;31.07;;;24.97;;
2610;SDS011;5612;51.134;17.058;2023-02-11T05:10:46;36.27;;;26.40;;
2610;SDS011;5612;51.134;17.058;2023-02-11T05:13:17;34.93;;;25.20;;
2610;SDS011;5612;51.134;17.058;2023-02-11T05:15:45;35.70;;;25.67;;
2610;SDS011;5612;51.134;17.058;2023-02-11T05:18:14;29.00;;;22.33;;
2610;SDS011;5612;51.134;17.058;2023-02-11T05:20:43;29.90;;;23.17;;
2610;SDS011;5612;51.134;17.058;2023-02-11T05:23:12;34.23;;;26.03;;
2610;SDS011;5612;51.134;17.058;2023-02-11T05:25:41;31.80;;;24.70;;
2610;SDS011;5612;51.134;17.058;2023-02-11T05:28:09;36.13;;;26.73;;
2610;SDS011;5612;51.134;17.058;2023-02-11T05:30:40;30.30;;;23.33;;
2610;SDS011;5612;51.134;17.058;2023-02-11T05:33:08;35.30;;;23.90;;
2610;SDS011;5612;51.134;17.058;2023-02-11T05:35:37;32.63;;;24.30;;
2610;SDS011;5612;51.134;17.058;2023-02-11T05:38:06;30.53;;;23.60;;
2610;SDS011;5612;51.134;17.058;2023-02-11T05:40:35;33.93;;;26.60;;
2610;SDS011;5612;51.134;17.058;2023-02-11T05:43:04;36.37;;;26.73;;
2610;SDS011;5612;51.134;17.058;2023-02-11T05:45:32;34.37;;;22.90;;
2610;SDS011;5612;51.134;17.058;2023-02-11T05:48:03;31.50;;;24.63;;
2610;SDS011;5612;51.134;17.058;2023-02-11T05:50:32;35.23;;;24.97;;
2610;SDS011;5612;51.134;17.058;2023-02-11T05:53:01;33.93;;;24.57;;
2610;SDS011;5612;51.134;17.058;2023-02-11T05:55:31;32.63;;;26.00;;
2610;SDS011;5612;51.134;17.058;2023-02-11T05:58:00;34.33;;;23.40;;
2610;SDS011;5612;51.134;17.058;2023-02-11T06:00:30;33.00;;;25.30;;
2610;SDS011;5612;51.134;17.058;2023-02-11T06:02:58;33.50;;;25.67;;
2610;SDS011;5612;51.134;17.058;2023-02-11T06:05:29;41.20;;;27.20;;
2610;SDS011;5612;51.134;17.058;2023-02-11T06:07:57;37.13;;;26.90;;
2610;SDS011;5612;51.134;17.058;2023-02-11T06:10:26;34.70;;;26.20;;
2610;SDS011;5612;51.134;17.058;2023-02-11T06:12:55;38.17;;;28.13;;
2610;SDS011;5612;51.134;17.058;2023-02-11T06:15:23;38.90;;;27.60;;
2610;SDS011;5612;51.134;17.058;2023-02-11T06:17:52;32.93;;;24.90;;
2610;SDS011;5612;51.134;17.058;2023-02-11T06:20:21;34.80;;;25.70;;
2610;SDS011;5612;51.134;17.058;2023-02-11T06:22:51;33.27;;;25.90;;
2610;SDS011;5612;51.134;17.058;2023-02-11T06:25:20;38.77;;;26.70;;
2610;SDS011;5612;51.134;17.058;2023-02-11T06:27:49;39.37;;;27.47;;
2610;SDS011;5612;51.134;17.058;2023-02-11T06:30:18;36.47;;;25.47;;
2610;SDS011;5612;51.134;17.058;2023-02-11T06:32:47;35.10;;;26.50;;
2610;SDS011;5612;51.134;17.058;2023-02-11T06:35:16;40.00;;;27.67;;
2610;SDS011;5612;51.134;17.058;2023-02-11T06:37:45;37.37;;;27.40;;
2610;SDS011;5612;51.134;17.058;2023-02-11T06:40:16;40.10;;;27.03;;
2610;SDS011;5612;51.134;17.058;2023-02-11T06:42:45;37.83;;;25.37;;
2610;SDS011;5612;51.134;17.058;2023-02-11T06:45:14;35.20;;;28.07;;
2610;SDS011;5612;51.134;17.058;2023-02-11T06:47:44;33.83;;;24.73;;
2610;SDS011;5612;51.134;17.058;2023-02-11T06:50:13;33.40;;;25.57;;
2610;SDS011;5612;51.134;17.058;2023-02-11T06:52:42;32.27;;;26.23;;
2610;SDS011;5612;51.134;17.058;2023-02-11T06:55:10;41.10;;;27.70;;
2610;SDS011;5612;51.134;17.058;2023-02-11T06:57:41;40.37;;;27.00;;
2610;SDS011;5612;51.134;17.058;2023-02-11T07:00:10;40.37;;;29.50;;
2610;SDS011;5612;51.134;17.058;2023-02-11T07:02:40;33.53;;;28.13;;
2610;SDS011;5612;51.134;17.058;2023-02-11T07:05:09;41.63;;;28.90;;
2610;SDS011;5612;51.134;17.058;2023-02-11T07:07:38;37.50;;;28.63;;
2610;SDS011;5612;51.134;17.058;2023-02-11T07:10:07;38.80;;;26.03;;
2610;SDS011;5612;51.134;17.058;2023-02-11T07:12:36;35.60;;;26.53;;
2610;SDS011;5612;51.134;17.058;2023-02-11T07:15:06;33.60;;;23.90;;
2610;SDS011;5612;51.134;17.058;2023-02-11T07:17:35;34.77;;;27.20;;
2610;SDS011;5612;51.134;17.058;2023-02-11T07:20:04;34.67;;;26.90;;
2610;SDS011;5612;51.134;17.058;2023-02-11T07:22:35;36.67;;;27.03;;
2610;SDS011;5612;51.134;17.058;2023-02-11T07:25:04;41.10;;;28.17;;
2610;SDS011;5612;51.134;17.058;2023-02-11T07:27:33;36.47;;;27.40;;
2610;SDS011;5612;51.134;17.058;2023-02-11T07:30:02;34.63;;;26.10;;
2610;SDS011;5612;51.134;17.058;2023-02-11T07:32:34;37.03;;;25.50;;
2610;SDS011;5612;51.134;17.058;2023-02-11T07:35:03;38.17;;;26.30;;
2610;SDS011;5612;51.134;17.058;2023-02-11T07:37:32;36.83;;;25.87;;
2610;SDS011;5612;51.134;17.058;2023-02-11T07:40:01;41.30;;;27.23;;
2610;SDS011;5612;51.134;17.058;2023-02-11T07:42:31;30.00;;;24.13;;
2610;SDS011;5612;51.134;17.058;2023-02-11T07:45:00;38.63;;;26.17;;
2610;SDS011;5612;51.134;17.058;2023-02-11T07:47:29;36.93;;;26.20;;
2610;SDS011;5612;51.134;17.058;2023-02-11T07:49:59;35.77;;;26.13;;
2610;SDS011;5612;51.134;17.058;2023-02-11T07:52:28;30.20;;;24.07;;
2610;SDS011;5612;51.134;17.058;2023-02-11T07:54:57;29.30;;;22.87;;
2610;SDS011;5612;51.134;17.058;2023-02-11T07:57:29;33.80;;;24.47;;
2610;SDS011;5612;51.134;17.058;2023-02-11T07:59:57;28.77;;;24.50;;
2610;SDS011;5612;51.134;17.058;2023-02-11T08:02:26;33.60;;;23.70;;
2610;SDS011;5612;51.134;17.058;2023-02-11T08:04:55;30.20;;;24.43;;
2610;SDS011;5612;51.134;17.058;2023-02-11T08:07:25;34.80;;;23.47;;
2610;SDS011;5612;51.134;17.058;2023-02-11T08:09:55;32.30;;;23.97;;
2610;SDS011;5612;51.134;17.058;2023-02-11T08:12:24;31.57;;;24.60;;
2610;SDS011;5612;51.134;17.058;2023-02-11T08:14:52;32.00;;;22.07;;
2610;SDS011;5612;51.134;17.058;2023-02-11T08:17:21;36.10;;;24.57;;
2610;SDS011;5612;51.134;17.058;2023-02-11T08:19:50;33.20;;;25.07;;
2610;SDS011;5612;51.134;17.058;2023-02-11T08:22:19;37.97;;;26.20;;
2610;SDS011;5612;51.134;17.058;2023-02-11T08:24:49;36.40;;;24.67;;
2610;SDS011;5612;51.134;17.058;2023-02-11T08:27:18;31.77;;;25.40;;
2610;SDS011;5612;51.134;17.058;2023-02-11T08:29:46;32.93;;;24.90;;
2610;SDS011;5612;51.134;17.058;2023-02-11T08:32:15;37.63;;;26.53;;
2610;SDS011;5612;51.134;17.058;2023-02-11T08:34:44;33.30;;;23.57;;
2610;SDS011;5612;51.134;17.058;2023-02-11T08:37:13;33.20;;;24.60;;
2610;SDS011;5612;51.134;17.058;2023-02-11T08:39:41;32.73;;;24.43;;
2610;SDS011;5612;51.134;17.058;2023-02-11T08:42:14;33.40;;;23.60;;
2610;SDS011;5612;51.134;17.058;2023-02-11T08:44:42;35.83;;;23.87;;
2610;SDS011;5612;51.134;17.058;2023-02-11T08:47:11;31.23;;;25.30;;
2610;SDS011;5612;51.134;17.058;2023-02-11T08:49:43;37.57;;;25.70;;
2610;SDS011;5612;51.134;17.058;2023-02-11T08:52:12;36.37;;;26.27;;
2610;SDS011;5612;51.134;17.058;2023-02-11T08:54:41;36.17;;;26.80;;
2610;SDS011;5612;51.134;17.058;2023-02-11T08:57:09;35.67;;;26.93;;
2610;SDS011;5612;51.134;17.058;2023-02-11T08:59:40;36.67;;;25.83;;
2610;SDS011;5612;51.134;17.058;2023-02-11T09:02:10;42.17;;;29.50;;
2610;SDS011;5612;51.134;17.058;2023-02-11T09:04:40;41.47;;;27.30;;
2610;SDS011;5612;51.134;17.058;2023-02-11T09:07:08;42.03;;;29.70;;
2610;SDS011;5612;51.134;17.058;2023-02-11T09:09:38;36.60;;;26.30;;
2610;SDS011;5612;51.134;17.058;2023-02-11T09:12:07;34.23;;;26.07;;
2610;SDS011;5612;51.134;17.058;2023-02-11T09:14:36;42.53;;;29.67;;
2610;SDS011;5612;51.134;17.058;2023-02-11T09:17:06;42.27;;;27.90;;
2610;SDS011;5612;51.134;17.058;2023-02-11T09:19:35;32.40;;;26.87;;
2610;SDS011;5612;51.134;17.058;2023-02-11T09:22:04;33.07;;;25.70;;
2610;SDS011;5612;51.134;17.058;2023-02-11T09:24:32;35.10;;;26.17;;
2610;SDS011;5612;51.134;17.058;2023-02-11T09:27:01;36.57;;;26.83;;
2610;SDS011;5612;51.134;17.058;2023-02-11T09:29:30;36.13;;;26.67;;
2610;SDS011;5612;51.134;17.058;2023-02-11T09:31:59;36.63;;;26.30;;
2610;SDS011;5612;51.134;17.058;2023-02-11T09:34:29;36.43;;;25.80;;
2610;SDS011;5612;51.134;17.058;2023-02-11T09:36:58;34.10;;;25.77;;
2610;SDS011;5612;51.134;17.058;2023-02-11T09:39:26;36.90;;;25.40;;
2610;SDS011;5612;51.134;17.058;2023-02-11T09:42:03;36.33;;;24.90;;
2610;SDS011;5612;51.134;17.058;2023-02-11T09:44:47;32.07;;;24.20;;
2610;SDS011;5612;51.134;17.058;2023-02-11T09:47:21;30.80;;;24.93;;
2610;SDS011;5612;51.134;17.058;2023-02-11T09:49:57;32.90;;;26.40;;
2610;SDS011;5612;51.134;17.058;2023-02-11T09:52:32;30.07;;;24.13;;
2610;SDS011;5612;51.134;17.058;2023-02-11T09:55:10;28.60;;;24.00;;
2610;SDS011;5612;51.134;17.058;2023-02-11T09:57:45;36.13;;;24.80;;
2610;SDS011;5612;51.134;17.058;2023-02-11T10:00:16;26.70;;;23.10;;
2610;SDS011;5612;51.134;17.058;2023-02-11T10:03:03;30.57;;;25.10;;
2610;SDS011;5612;51.134;17.058;2023-02-11T10:05:59;33.67;;;23.00;;
2610;SDS011;5612;51.134;17.058;2023-02-11T10:08:44;29.90;;;21.73;;
2610;SDS011;5612;51.134;17.058;2023-02-11T10:11:25;31.60;;;25.10;;
2610;SDS011;5612;51.134;17.058;2023-02-11T10:14:05;27.80;;;21.33;;
2610;SDS011;5612;51.134;17.058;2023-02-11T10:16:52;27.97;;;22.80;;
2610;SDS011;5612;51.134;17.058;2023-02-11T10:22:23;29.43;;;22.20;;
2610;SDS011;5612;51.134;17.058;2023-02-11T10:24:57;30.13;;;22.60;;
2610;SDS011;5612;51.134;17.058;2023-02-11T10:27:29;27.73;;;20.07;;
2610;SDS011;5612;51.134;17.058;2023-02-11T10:30:00;27.00;;;22.87;;
2610;SDS011;5612;51.134;17.058;2023-02-11T10:32:34;30.47;;;21.97;;
2610;SDS011;5612;51.134;17.058;2023-02-11T10:35:13;28.67;;;22.90;;
2610;SDS011;5612;51.134;17.058;2023-02-11T10:37:45;31.60;;;24.10;;
2610;SDS011;5612;51.134;17.058;2023-02-11T10:40:14;29.17;;;22.73;;
2610;SDS011;5612;51.134;17.058;2023-02-11T10:42:47;26.73;;;22.87;;
2610;SDS011;5612;51.134;17.058;2023-02-11T10:45:22;30.13;;;22.80;;
2610;SDS011;5612;51.134;17.058;2023-02-11T10:47:54;28.00;;;22.50;;
2610;SDS011;5612;51.134;17.058;2023-02-11T10:50:26;28.50;;;22.50;;
2610;SDS011;5612;51.134;17.058;2023-02-11T10:53:11;29.33;;;23.40;;
2610;SDS011;5612;51.134;17.058;2023-02-11T10:55:49;31.00;;;23.77;;
2610;SDS011;5612;51.134;17.058;2023-02-11T10:58:24;30.67;;;24.90;;
2610;SDS011;5612;51.134;17.058;2023-02-11T11:00:55;29.67;;;22.40;;
2610;SDS011;5612;51.134;17.058;2023-02-11T11:03:26;31.03;;;25.07;;
2610;SDS011;5612;51.134;17.058;2023-02-11T11:05:59;33.00;;;25.87;;
2610;SDS011;5612;51.134;17.058;2023-02-11T11:08:44;24.60;;;21.17;;
2610;SDS011;5612;51.134;17.058;2023-02-11T11:11:15;33.97;;;23.87;;
2610;SDS011;5612;51.134;17.058;2023-02-11T11:13:53;31.83;;;24.73;;
2610;SDS011;5612;51.134;17.058;2023-02-11T11:16:25;28.47;;;23.23;;
2610;SDS011;5612;51.134;17.058;2023-02-11T11:21:48;30.57;;;23.33;;
2610;SDS011;5612;51.134;17.058;2023-02-11T11:24:21;31.90;;;23.37;;
2610;SDS011;5612;51.134;17.058;2023-02-11T11:26:56;32.57;;;24.60;;
2610;SDS011;5612;51.134;17.058;2023-02-11T11:29:28;32.97;;;24.50;;
2610;SDS011;5612;51.134;17.058;2023-02-11T11:32:01;30.30;;;25.37;;
2610;SDS011;5612;51.134;17.058;2023-02-11T11:34:33;32.30;;;24.73;;
2610;SDS011;5612;51.134;17.058;2023-02-11T11:37:09;32.50;;;24.20;;
2610;SDS011;5612;51.134;17.058;2023-02-11T11:39:42;31.37;;;25.33;;
2610;SDS011;5612;51.134;17.058;2023-02-11T11:42:23;28.87;;;24.17;;
2610;SDS011;5612;51.134;17.058;2023-02-11T11:44:57;34.43;;;23.40;;
2610;SDS011;5612;51.134;17.058;2023-02-11T11:47:35;33.27;;;26.03;;
2610;SDS011;5612;51.134;17.058;2023-02-11T11:50:28;32.70;;;25.13;;
2610;SDS011;5612;51.134;17.058;2023-02-11T11:53:04;31.67;;;22.87;;
2610;SDS011;5612;51.134;17.058;2023-02-11T11:55:42;38.10;;;25.70;;
2610;SDS011;5612;51.134;17.058;2023-02-11T11:58:14;32.47;;;22.17;;
2610;SDS011;5612;51.134;17.058;2023-02-11T12:00:51;31.53;;;24.83;;
2610;SDS011;5612;51.134;17.058;2023-02-11T12:06:25;34.27;;;23.43;;
2610;SDS011;5612;51.134;17.058;2023-02-11T12:09:04;28.37;;;22.73;;
2610;SDS011;5612;51.134;17.058;2023-02-11T12:11:52;35.03;;;24.83;;
2610;SDS011;5612;51.134;17.058;2023-02-11T12:14:35;34.43;;;25.30;;
2610;SDS011;5612;51.134;17.058;2023-02-11T12:17:15;30.97;;;26.27;;
2610;SDS011;5612;51.134;17.058;2023-02-11T12:19:54;37.70;;;26.23;;
2610;SDS011;5612;51.134;17.058;2023-02-11T12:22:48;30.40;;;24.00;;
2610;SDS011;5612;51.134;17.058;2023-02-11T12:25:32;31.50;;;26.70;;
2610;SDS011;5612;51.134;17.058;2023-02-11T12:28:09;33.47;;;24.13;;
2610;SDS011;5612;51.134;17.058;2023-02-11T12:30:53;36.93;;;25.60;;
2610;SDS011;5612;51.134;17.058;2023-02-11T12:33:36;31.57;;;24.43;;
2610;SDS011;5612;51.134;17.058;2023-02-11T12:36:23;31.23;;;24.53;;
2610;SDS011;5612;51.134;17.058;2023-02-11T12:39:05;26.60;;;22.87;;
2610;SDS011;5612;51.134;17.058;2023-02-11T12:42:01;35.63;;;26.57;;
2610;SDS011;5612;51.134;17.058;2023-02-11T12:45:15;28.33;;;22.83;;
2610;SDS011;5612;51.134;17.058;2023-02-11T12:48:00;30.73;;;23.00;;
2610;SDS011;5612;51.134;17.058;2023-02-11T12:50:45;26.70;;;21.10;;
2610;SDS011;5612;51.134;17.058;2023-02-11T12:53:32;30.87;;;24.30;;
2610;SDS011;5612;51.134;17.058;2023-02-11T12:56:20;28.63;;;22.10;;
2610;SDS011;5612;51.134;17.058;2023-02-11T12:58:54;27.63;;;21.13;;
2610;SDS011;5612;51.134;17.058;2023-02-11T13:01:30;31.50;;;23.27;;
2610;SDS011;5612;51.134;17.058;2023-02-11T13:04:04;31.47;;;23.53;;
2610;SDS011;5612;51.134;17.058;2023-02-11T13:06:39;30.17;;;23.27;;
2610;SDS011;5612;51.134;17.058;2023-02-11T13:09:12;31.07;;;22.23;;
2610;SDS011;5612;51.134;17.058;2023-02-11T13:11:48;30.40;;;22.87;;
2610;SDS011;5612;51.134;17.058;2023-02-11T13:14:21;31.07;;;24.23;;
2610;SDS011;5612;51.134;17.058;2023-02-11T13:16:59;28.37;;;24.10;;
2610;SDS011;5612;51.134;17.058;2023-02-11T13:19:32;29.87;;;23.73;;
2610;SDS011;5612;51.134;17.058;2023-02-11T13:22:07;31.00;;;24.73;;
2610;SDS011;5612;51.134;17.058;2023-02-11T13:24:42;29.87;;;22.53;;
2610;SDS011;5612;51.134;17.058;2023-02-11T13:27:20;27.77;;;22.10;;
2610;SDS011;5612;51.134;17.058;2023-02-11T13:30:17;28.03;;;22.70;;
2610;SDS011;5612;51.134;17.058;2023-02-11T13:36:21;32.50;;;25.17;;
2610;SDS011;5612;51.134;17.058;2023-02-11T13:38:54;33.67;;;26.43;;
2610;SDS011;5612;51.134;17.058;2023-02-11T13:41:32;27.23;;;23.17;;
2610;SDS011;5612;51.134;17.058;2023-02-11T13:44:16;28.33;;;20.80;;
2610;SDS011;5612;51.134;17.058;2023-02-11T13:46:58;29.03;;;23.13;;
2610;SDS011;5612;51.134;17.058;2023-02-11T13:49:30;32.10;;;25.80;;
2610;SDS011;5612;51.134;17.058;2023-02-11T13:52:04;33.60;;;24.70;;
2610;SDS011;5612;51.134;17.058;2023-02-11T13:54:48;29.70;;;23.93;;
2610;SDS011;5612;51.134;17.058;2023-02-11T13:57:33;33.60;;;27.63;;
2610;SDS011;5612;51.134;17.058;2023-02-11T14:03:28;35.10;;;25.90;;
2610;SDS011;5612;51.134;17.058;2023-02-11T14:06:21;28.33;;;23.23;;
2610;SDS011;5612;51.134;17.058;2023-02-11T14:12:24;33.23;;;23.90;;
2610;SDS011;5612;51.134;17.058;2023-02-11T14:15:08;29.27;;;23.70;;
2610;SDS011;5612;51.134;17.058;2023-02-11T14:17:48;25.60;;;22.10;;
2610;SDS011;5612;51.134;17.058;2023-02-11T14:20:32;33.07;;;24.57;;
2610;SDS011;5612;51.134;17.058;2023-02-11T14:23:05;32.07;;;23.23;;
2610;SDS011;5612;51.134;17.058;2023-02-11T14:25:51;28.53;;;22.80;;
2610;SDS011;5612;51.134;17.058;2023-02-11T14:28:30;31.70;;;24.30;;
2610;SDS011;5612;51.134;17.058;2023-02-11T14:31:02;30.07;;;22.67;;
2610;SDS011;5612;51.134;17.058;2023-02-11T14:33:57;26.17;;;19.80;;
2610;SDS011;5612;51.134;17.058;2023-02-11T14:37:02;30.60;;;23.10;;
2610;SDS011;5612;51.134;17.058;2023-02-11T14:39:47;32.40;;;23.90;;
2610;SDS011;5612;51.134;17.058;2023-02-11T14:42:26;35.20;;;24.70;;
2610;SDS011;5612;51.134;17.058;2023-02-11T14:45:03;29.67;;;21.27;;
2610;SDS011;5612;51.134;17.058;2023-02-11T14:47:39;29.73;;;23.73;;
2610;SDS011;5612;51.134;17.058;2023-02-11T14:50:23;25.37;;;21.47;;
2610;SDS011;5612;51.134;17.058;2023-02-11T14:52:55;31.43;;;24.20;;
2610;SDS011;5612;51.134;17.058;2023-02-11T14:55:30;29.40;;;22.87;;
2610;SDS011;5612;51.134;17.058;2023-02-11T14:58:11;29.63;;;25.00;;
2610;SDS011;5612;51.134;17.058;2023-02-11T15:00:47;30.93;;;24.70;;
2610;SDS011;5612;51.134;17.058;2023-02-11T15:03:30;35.60;;;27.63;;
2610;SDS011;5612;51.134;17.058;2023-02-11T15:06:04;33.60;;;24.40;;
2610;SDS011;5612;51.134;17.058;2023-02-11T15:08:36;33.33;;;25.00;;
2610;SDS011;5612;51.134;17.058;2023-02-11T15:11:10;32.60;;;26.27;;
2610;SDS011;5612;51.134;17.058;2023-02-11T15:13:44;35.37;;;27.27;;
2610;SDS011;5612;51.134;17.058;2023-02-11T15:16:17;32.77;;;26.20;;
2610;SDS011;5612;51.134;17.058;2023-02-11T15:18:50;34.13;;;26.43;;
2610;SDS011;5612;51.134;17.058;2023-02-11T15:21:23;34.17;;;27.77;;
2610;SDS011;5612;51.134;17.058;2023-02-11T15:23:55;31.93;;;27.03;;
2610;SDS011;5612;51.134;17.058;2023-02-11T15:26:27;37.20;;;27.80;;
2610;SDS011;5612;51.134;17.058;2023-02-11T15:28:59;37.23;;;28.73;;
2610;SDS011;5612;51.134;17.058;2023-02-11T15:31:28;37.57;;;28.40;;
2610;SDS011;5612;51.134;17.058;2023-02-11T15:34:05;42.60;;;31.40;;
2610;SDS011;5612;51.134;17.058;2023-02-11T15:36:37;44.93;;;31.20;;